Time;durP1;ratioP1;P1;durP2;ratioP2;P2;SDS_P1;SDS_P2;PMS_P1;PMS_P2;Temp;Humidity;BMP_temperature;BMP_pressure;BME280_temperature;BME280_humidity;BME280_pressure;Samples;Min_cycle;Max_cycle;Signal;HPM_P1;HPM_P2
2022/05/31 00:00:08;;;;;;;4.68;2.10;;;;;;;;;;5038586;28;20127;-81
2022/05/31 00:02:35;;;;;;;4.10;2.00;;;;;;;;;;5038709;28;20026;-81
2022/05/31 00:05:01;;;;;;;9.73;2.67;;;;;;;;;;5038334;28;20083;-81
2022/05/31 00:07:27;;;;;;;5.70;2.28;;;;;;;;;;5038442;28;20086;-81
2022/05/31 00:09:53;;;;;;;6.55;2.17;;;;;;;;;;5038128;28;20017;-81
2022/05/31 00:12:19;;;;;;;4.03;2.35;;;;;;;;;;5036750;28;20071;-81
2022/05/31 00:14:45;;;;;;;4.10;2.42;;;;;;;;;;5037440;28;20032;-82
2022/05/31 00:17:11;;;;;;;4.72;2.60;;;;;;;;;;5033083;28;20309;-79
2022/05/31 00:19:37;;;;;;;6.10;3.20;;;;;;;;;;5028784;28;20028;-81
2022/05/31 00:22:06;;;;;;;4.38;2.65;;;;;;;;;;5036652;28;20356;-81
2022/05/31 00:24:33;;;;;;;4.45;2.85;;;;;;;;;;5037139;28;20045;-81
2022/05/31 00:26:59;;;;;;;4.95;2.53;;;;;;;;;;5037577;28;20036;-80
2022/05/31 00:29:26;;;;;;;4.35;2.35;;;;;;;;;;5032837;28;20034;-81
2022/05/31 00:31:52;;;;;;;5.90;2.50;;;;;;;;;;5034596;28;20017;-80
2022/05/31 00:34:19;;;;;;;4.22;2.28;;;;;;;;;;5036207;28;20109;-80
2022/05/31 00:36:47;;;;;;;4.93;2.42;;;;;;;;;;5017094;28;20026;-81
2022/05/31 00:39:13;;;;;;;4.15;2.10;;;;;;;;;;5036274;28;20036;-80
2022/05/31 00:41:39;;;;;;;4.57;2.33;;;;;;;;;;5036323;28;20033;-81
2022/05/31 00:44:07;;;;;;;4.25;2.35;;;;;;;;;;5031489;28;20022;-80
2022/05/31 00:46:41;;;;;;;4.05;2.10;;;;;;;;;;5036775;28;20021;-81
2022/05/31 00:49:08;;;;;;;4.30;2.25;;;;;;;;;;5033953;28;20083;-81
2022/05/31 00:51:38;;;;;;;4.75;2.40;;;;;;;;;;5031854;28;20026;-81
2022/05/31 00:54:05;;;;;;;4.55;2.65;;;;;;;;;;5026994;28;20163;-80
2022/05/31 00:56:32;;;;;;;4.93;2.70;;;;;;;;;;5036558;28;20025;-80
2022/05/31 00:59:02;;;;;;;4.40;2.50;;;;;;;;;;5035848;28;20075;-81
2022/05/31 01:01:29;;;;;;;7.93;3.10;;;;;;;;;;5054121;28;20025;-81
2022/05/31 01:03:56;;;;;;;4.97;2.92;;;;;;;;;;5036967;28;20021;-81
2022/05/31 01:06:22;;;;;;;6.10;2.97;;;;;;;;;;5038428;28;20061;-80
2022/05/31 01:08:48;;;;;;;5.65;2.65;;;;;;;;;;5038243;28;20391;-82
2022/05/31 01:11:16;;;;;;;5.18;2.67;;;;;;;;;;5039304;28;20036;-81
2022/05/31 01:13:42;;;;;;;4.90;2.50;;;;;;;;;;5038214;28;20072;-81
2022/05/31 01:16:10;;;;;;;4.80;2.60;;;;;;;;;;5035028;28;20026;-82
2022/05/31 01:18:37;;;;;;;6.57;2.50;;;;;;;;;;5039115;28;20036;-82
2022/05/31 01:21:03;;;;;;;4.35;2.50;;;;;;;;;;5039490;28;20029;-82
2022/05/31 01:23:39;;;;;;;5.53;3.00;;;;;;;;;;5038787;28;20451;-81
2022/05/31 01:26:18;;;;;;;5.43;3.13;;;;;;;;;;5037805;28;20041;-81
2022/05/31 01:28:44;;;;;;;4.78;2.88;;;;;;;;;;5036538;28;20437;-80
2022/05/31 01:31:14;;;;;;;5.78;3.13;;;;;;;;;;5033192;28;20041;-81
2022/05/31 01:33:52;;;;;;;4.85;2.80;;;;;;;;;;5037482;28;20035;-82
2022/05/31 01:36:21;;;;;;;4.47;2.33;;;;;;;;;;5040801;28;20030;-83
2022/05/31 01:38:51;;;;;;;5.13;2.70;;;;;;;;;;5038302;28;20117;-83
2022/05/31 01:41:19;;;;;;;4.47;2.72;;;;;;;;;;5043377;28;20084;-80
2022/05/31 01:43:46;;;;;;;5.38;2.80;;;;;;;;;;5038882;28;20026;-82
2022/05/31 01:46:19;;;;;;;5.90;3.00;;;;;;;;;;5036877;28;20068;-82
2022/05/31 01:48:46;;;;;;;5.20;3.03;;;;;;;;;;5036894;28;20096;-81
2022/05/31 01:51:12;;;;;;;5.68;2.72;;;;;;;;;;5036977;28;20026;-81
2022/05/31 01:53:40;;;;;;;4.97;2.83;;;;;;;;;;5037675;28;20033;-81
2022/05/31 01:56:06;;;;;;;4.50;2.65;;;;;;;;;;5037937;28;20428;-80
2022/05/31 01:58:34;;;;;;;4.60;2.80;;;;;;;;;;5021528;28;20040;-80
2022/05/31 02:01:01;;;;;;;6.00;2.63;;;;;;;;;;5037608;28;20055;-82
2022/05/31 02:03:28;;;;;;;4.60;2.88;;;;;;;;;;5037033;28;20022;-81
2022/05/31 02:05:54;;;;;;;4.80;2.55;;;;;;;;;;5036190;28;20028;-82
2022/05/31 02:08:21;;;;;;;5.13;2.75;;;;;;;;;;5037852;28;20089;-82
2022/05/31 02:10:48;;;;;;;4.40;2.72;;;;;;;;;;5038498;28;20025;-81
2022/05/31 02:13:16;;;;;;;4.88;3.00;;;;;;;;;;5039166;28;20079;-81
2022/05/31 02:15:42;;;;;;;4.97;3.30;;;;;;;;;;5036857;28;20069;-81
2022/05/31 02:18:09;;;;;;;5.28;2.97;;;;;;;;;;5037759;28;20467;-81
2022/05/31 02:20:35;;;;;;;6.93;3.35;;;;;;;;;;5036142;28;20041;-81
2022/05/31 02:23:01;;;;;;;6.15;2.90;;;;;;;;;;5036980;28;20625;-82
2022/05/31 02:25:27;;;;;;;5.15;2.80;;;;;;;;;;5035096;28;20030;-81
2022/05/31 02:27:53;;;;;;;5.50;2.80;;;;;;;;;;5036984;28;20410;-81
2022/05/31 02:30:19;;;;;;;4.70;2.78;;;;;;;;;;5038378;28;20032;-81
2022/05/31 02:32:45;;;;;;;5.85;4.05;;;;;;;;;;5041789;28;20059;-82
2022/05/31 02:35:12;;;;;;;5.93;3.10;;;;;;;;;;5042894;28;20041;-80
2022/05/31 02:37:39;;;;;;;4.80;2.60;;;;;;;;;;5033858;28;20029;-80
2022/05/31 02:40:06;;;;;;;4.90;3.10;;;;;;;;;;5034556;28;20167;-81
2022/05/31 02:42:32;;;;;;;5.35;3.25;;;;;;;;;;5018763;28;20029;-81
2022/05/31 02:44:58;;;;;;;6.78;3.28;;;;;;;;;;5018464;28;20033;-82
2022/05/31 02:47:24;;;;;;;7.97;3.50;;;;;;;;;;5032622;28;20021;-80
2022/05/31 02:49:50;;;;;;;8.82;5.53;;;;;;;;;;5030077;28;20040;-81
2022/05/31 02:52:17;;;;;;;7.20;5.32;;;;;;;;;;5034856;28;20017;-81
2022/05/31 02:54:43;;;;;;;9.52;7.63;;;;;;;;;;5031540;28;20048;-81
2022/05/31 02:57:10;;;;;;;9.27;8.27;;;;;;;;;;5033012;28;20034;-79
2022/05/31 02:59:36;;;;;;;8.40;6.72;;;;;;;;;;5033521;28;20021;-81
2022/05/31 03:02:02;;;;;;;7.95;6.40;;;;;;;;;;5032188;28;20030;-80
2022/05/31 03:04:28;;;;;;;7.47;6.10;;;;;;;;;;5033301;28;20028;-81
2022/05/31 03:06:54;;;;;;;8.05;6.25;;;;;;;;;;5034841;28;20017;-82
2022/05/31 03:09:20;;;;;;;7.78;5.00;;;;;;;;;;5040564;28;20017;-82
2022/05/31 03:11:51;;;;;;;8.25;5.70;;;;;;;;;;5039899;28;20014;-82
2022/05/31 03:14:21;;;;;;;7.20;4.57;;;;;;;;;;5045000;28;20034;-83
2022/05/31 03:16:49;;;;;;;5.88;3.42;;;;;;;;;;5044439;28;20099;-83
2022/05/31 03:19:17;;;;;;;5.00;2.97;;;;;;;;;;5043197;28;20033;-83
2022/05/31 03:21:51;;;;;;;6.40;3.83;;;;;;;;;;5042112;28;20044;-82
2022/05/31 03:24:19;;;;;;;6.85;3.67;;;;;;;;;;5041444;28;20479;-83
2022/05/31 03:26:46;;;;;;;4.43;2.58;;;;;;;;;;5041438;28;20033;-82
2022/05/31 03:29:12;;;;;;;5.15;3.35;;;;;;;;;;5042286;28;20454;-83
2022/05/31 03:31:40;;;;;;;4.75;2.47;;;;;;;;;;5042962;28;20067;-83
2022/05/31 03:34:06;;;;;;;5.57;2.47;;;;;;;;;;5043895;28;20419;-82
2022/05/31 03:36:32;;;;;;;4.05;2.25;;;;;;;;;;5044680;28;20093;-83
2022/05/31 03:38:58;;;;;;;5.13;2.80;;;;;;;;;;5044258;28;20030;-83
2022/05/31 03:41:24;;;;;;;4.68;2.65;;;;;;;;;;5044693;28;20055;-82
2022/05/31 03:43:50;;;;;;;5.40;3.08;;;;;;;;;;5044048;28;20052;-83
2022/05/31 03:46:16;;;;;;;6.20;2.90;;;;;;;;;;5041083;28;20415;-82
2022/05/31 03:48:42;;;;;;;4.85;2.90;;;;;;;;;;5043650;28;20033;-82
2022/05/31 03:51:09;;;;;;;5.72;3.47;;;;;;;;;;5044785;28;20031;-83
2022/05/31 03:53:36;;;;;;;5.60;3.22;;;;;;;;;;5044456;28;20025;-83
2022/05/31 03:56:03;;;;;;;4.70;2.95;;;;;;;;;;5042978;28;20033;-83
2022/05/31 03:58:29;;;;;;;5.85;3.85;;;;;;;;;;5042604;28;20029;-83
2022/05/31 04:00:55;;;;;;;6.57;3.40;;;;;;;;;;5033970;28;20140;-83
2022/05/31 04:03:21;;;;;;;8.68;4.40;;;;;;;;;;5040589;28;20039;-83
2022/05/31 04:05:49;;;;;;;15.02;8.75;;;;;;;;;;5043131;28;20009;-83
2022/05/31 04:08:15;;;;;;;13.75;7.85;;;;;;;;;;5042427;28;20468;-82
2022/05/31 04:10:42;;;;;;;11.13;7.57;;;;;;;;;;5042673;28;20033;-83
2022/05/31 04:13:08;;;;;;;12.60;7.00;;;;;;;;;;5041116;28;20033;-82
2022/05/31 04:15:35;;;;;;;10.63;5.53;;;;;;;;;;5041492;28;20029;-82
2022/05/31 04:18:01;;;;;;;8.43;4.50;;;;;;;;;;5042950;28;20021;-82
2022/05/31 04:20:27;;;;;;;5.63;3.33;;;;;;;;;;5042344;28;20029;-80
2022/05/31 04:23:57;;;;;;;5.60;3.22;;;;;;;;;;5042262;28;20048;-81
2022/05/31 04:25:39;;;;;;;7.03;3.97;;;;;;;;;;5041494;28;20037;-83
2022/05/31 04:28:05;;;;;;;6.15;3.50;;;;;;;;;;5042959;28;20094;-82
2022/05/31 04:30:31;;;;;;;6.80;4.00;;;;;;;;;;5043117;28;20033;-82
2022/05/31 04:32:57;;;;;;;5.88;4.07;;;;;;;;;;5042325;28;20036;-82
2022/05/31 04:35:23;;;;;;;7.35;4.70;;;;;;;;;;5042574;28;20033;-81
2022/05/31 04:37:49;;;;;;;6.30;4.40;;;;;;;;;;5043259;28;20025;-83
2022/05/31 04:40:15;;;;;;;7.75;4.22;;;;;;;;;;5040762;28;20060;-81
2022/05/31 04:42:42;;;;;;;6.03;3.67;;;;;;;;;;5041642;28;20014;-83
2022/05/31 04:45:08;;;;;;;8.13;4.03;;;;;;;;;;5041642;28;20088;-83
2022/05/31 04:47:34;;;;;;;7.90;4.40;;;;;;;;;;5041393;28;20025;-82
2022/05/31 04:50:01;;;;;;;7.30;4.55;;;;;;;;;;5040807;28;20028;-82
2022/05/31 04:52:27;;;;;;;7.30;4.47;;;;;;;;;;5042678;28;20131;-80
2022/05/31 04:54:54;;;;;;;9.07;5.03;;;;;;;;;;5040338;28;20025;-82
2022/05/31 04:57:20;;;;;;;7.38;5.00;;;;;;;;;;5042193;28;20036;-82
2022/05/31 04:59:46;;;;;;;7.82;4.97;;;;;;;;;;5041027;28;20091;-82
2022/05/31 05:02:12;;;;;;;8.93;5.30;;;;;;;;;;5042084;28;20045;-83
2022/05/31 05:04:39;;;;;;;7.25;4.60;;;;;;;;;;5040121;28;20018;-81
2022/05/31 05:07:05;;;;;;;8.38;4.50;;;;;;;;;;5031462;28;20033;-81
2022/05/31 05:09:31;;;;;;;6.80;4.63;;;;;;;;;;5040831;28;20030;-82
2022/05/31 05:11:57;;;;;;;9.93;6.15;;;;;;;;;;5037728;28;20032;-82
2022/05/31 05:14:23;;;;;;;8.50;5.70;;;;;;;;;;5039069;28;20037;-80
2022/05/31 05:16:49;;;;;;;7.68;4.80;;;;;;;;;;5040129;28;20017;-82
2022/05/31 05:19:16;;;;;;;8.45;5.05;;;;;;;;;;5041595;28;20022;-83
2022/05/31 05:21:42;;;;;;;8.02;4.85;;;;;;;;;;5030779;28;20025;-84
2022/05/31 05:24:09;;;;;;;10.43;4.80;;;;;;;;;;5040041;28;20038;-83
2022/05/31 05:26:35;;;;;;;6.18;4.30;;;;;;;;;;5038472;28;20078;-83
2022/05/31 05:31:46;;;;;;;7.95;4.85;;;;;;;;;;5038089;28;20036;-82
2022/05/31 05:34:13;;;;;;;8.88;4.38;;;;;;;;;;5035656;28;20037;-82
2022/05/31 05:36:39;;;;;;;7.10;4.45;;;;;;;;;;5036018;28;20028;-79
2022/05/31 05:39:10;;;;;;;7.50;4.18;;;;;;;;;;5036727;28;20079;-82
2022/05/31 05:41:36;;;;;;;5.55;3.83;;;;;;;;;;5038831;28;20425;-82
2022/05/31 05:44:02;;;;;;;9.60;4.65;;;;;;;;;;5039241;28;20033;-81
2022/05/31 05:46:29;;;;;;;7.53;3.90;;;;;;;;;;5038835;28;20033;-82
2022/05/31 05:48:55;;;;;;;14.45;5.68;;;;;;;;;;5033508;28;20048;-82
2022/05/31 05:51:23;;;;;;;8.25;5.15;;;;;;;;;;5033739;28;20061;-80
2022/05/31 05:53:49;;;;;;;10.68;7.63;;;;;;;;;;5035290;28;20030;-81
2022/05/31 05:56:16;;;;;;;11.25;7.43;;;;;;;;;;5036958;28;20030;-81
2022/05/31 05:58:42;;;;;;;8.10;5.25;;;;;;;;;;5035784;28;20124;-83
2022/05/31 06:01:14;;;;;;;7.18;5.28;;;;;;;;;;5038657;28;20112;-79
2022/05/31 06:03:44;;;;;;;10.07;5.20;;;;;;;;;;5034860;28;20025;-78
2022/05/31 06:06:12;;;;;;;9.23;4.95;;;;;;;;;;5038905;28;20040;-81
2022/05/31 06:08:41;;;;;;;8.02;4.90;;;;;;;;;;5037207;28;20024;-81
2022/05/31 06:11:22;;;;;;;9.43;6.10;;;;;;;;;;5037426;28;20092;-80
2022/05/31 06:14:00;;;;;;;15.45;6.32;;;;;;;;;;5037189;28;20036;-83
2022/05/31 06:16:28;;;;;;;8.40;5.40;;;;;;;;;;5038917;28;20081;-83
2022/05/31 06:18:57;;;;;;;6.15;4.68;;;;;;;;;;5036688;28;20107;-82
2022/05/31 06:21:25;;;;;;;9.38;5.70;;;;;;;;;;5035928;28;20087;-81
2022/05/31 06:23:51;;;;;;;9.70;5.03;;;;;;;;;;5034118;28;20033;-82
2022/05/31 06:26:18;;;;;;;7.68;4.57;;;;;;;;;;5034557;28;20033;-82
2022/05/31 06:28:45;;;;;;;9.13;4.88;;;;;;;;;;5028061;28;20026;-82
2022/05/31 06:31:11;;;;;;;10.55;5.10;;;;;;;;;;5037949;28;20112;-83
2022/05/31 06:33:37;;;;;;;8.00;4.43;;;;;;;;;;5038723;28;20056;-83
2022/05/31 06:36:04;;;;;;;6.85;4.20;;;;;;;;;;5038389;28;20076;-81
2022/05/31 06:38:30;;;;;;;6.78;4.55;;;;;;;;;;5033556;28;20018;-83
2022/05/31 06:40:57;;;;;;;7.82;4.28;;;;;;;;;;5039841;28;20049;-83
2022/05/31 06:43:23;;;;;;;9.98;6.63;;;;;;;;;;5035511;28;20083;-81
2022/05/31 06:45:49;;;;;;;11.07;6.22;;;;;;;;;;5033867;28;20025;-82
2022/05/31 06:48:16;;;;;;;7.60;5.20;;;;;;;;;;5031831;28;20025;-81
2022/05/31 06:50:42;;;;;;;10.02;6.10;;;;;;;;;;5036927;28;20026;-80
2022/05/31 06:58:41;;;;;;;8.30;3.85;;;;;;;;;;5037039;28;20041;-82
2022/05/31 07:01:07;;;;;;;7.15;3.28;;;;;;;;;;5037877;28;20025;-83
2022/05/31 07:03:33;;;;;;;6.00;3.40;;;;;;;;;;5030967;28;20484;-83
2022/05/31 07:05:59;;;;;;;6.75;3.22;;;;;;;;;;5023015;28;20036;-81
2022/05/31 07:08:26;;;;;;;7.65;3.97;;;;;;;;;;5038736;28;20100;-82
2022/05/31 07:10:52;;;;;;;7.60;3.03;;;;;;;;;;5038178;28;20155;-82
2022/05/31 07:13:20;;;;;;;6.05;2.75;;;;;;;;;;5039920;28;20025;-83
2022/05/31 07:15:46;;;;;;;6.50;2.72;;;;;;;;;;5032927;28;20041;-82
2022/05/31 07:18:12;;;;;;;4.32;2.30;;;;;;;;;;5034928;28;20029;-80
2022/05/31 07:20:38;;;;;;;5.72;2.38;;;;;;;;;;5036005;28;20486;-82
2022/05/31 07:23:04;;;;;;;5.55;2.45;;;;;;;;;;5036734;28;20036;-80
2022/05/31 07:25:30;;;;;;;5.85;2.45;;;;;;;;;;5037538;28;20096;-82
2022/05/31 07:27:56;;;;;;;5.72;2.42;;;;;;;;;;5035567;28;20038;-81
2022/05/31 07:30:22;;;;;;;5.90;2.38;;;;;;;;;;5035225;28;20030;-81
2022/05/31 07:32:48;;;;;;;4.30;1.83;;;;;;;;;;5033570;28;20036;-79
2022/05/31 07:35:14;;;;;;;10.15;2.75;;;;;;;;;;5037403;28;20044;-81
2022/05/31 07:37:40;;;;;;;6.57;2.50;;;;;;;;;;5038989;28;20041;-81
2022/05/31 07:40:07;;;;;;;4.32;2.42;;;;;;;;;;5039312;28;20454;-80
2022/05/31 07:42:33;;;;;;;6.82;2.70;;;;;;;;;;5033813;28;20057;-80
2022/05/31 07:44:59;;;;;;;6.85;2.58;;;;;;;;;;5033758;28;20022;-81
2022/05/31 07:47:26;;;;;;;5.30;2.30;;;;;;;;;;5033211;28;20056;-80
2022/05/31 07:49:52;;;;;;;4.63;2.72;;;;;;;;;;5032810;28;20431;-81
2022/05/31 07:52:18;;;;;;;5.55;2.60;;;;;;;;;;5032949;28;20093;-80
2022/05/31 07:54:44;;;;;;;5.95;2.40;;;;;;;;;;5033967;28;20030;-81
2022/05/31 07:59:59;;;;;;;4.93;2.38;;;;;;;;;;5034441;28;20407;-81
2022/05/31 08:02:25;;;;;;;4.95;2.47;;;;;;;;;;5029086;28;20095;-82
2022/05/31 08:04:51;;;;;;;5.07;2.60;;;;;;;;;;5036849;28;20479;-81
2022/05/31 08:07:17;;;;;;;7.50;2.65;;;;;;;;;;5035650;28;20036;-80
2022/05/31 08:09:43;;;;;;;4.68;2.45;;;;;;;;;;5033811;28;20356;-79
2022/05/31 08:12:10;;;;;;;5.43;2.40;;;;;;;;;;5038163;28;20039;-80
2022/05/31 08:14:36;;;;;;;4.22;2.40;;;;;;;;;;5036981;28;20022;-81
2022/05/31 08:17:03;;;;;;;5.15;2.45;;;;;;;;;;5036229;28;20475;-80
2022/05/31 08:19:30;;;;;;;7.35;2.90;;;;;;;;;;5034612;28;20025;-80
2022/05/31 08:21:56;;;;;;;4.88;2.78;;;;;;;;;;5016085;28;20033;-82
2022/05/31 08:24:23;;;;;;;5.18;2.92;;;;;;;;;;5035419;28;20033;-81
2022/05/31 08:26:49;;;;;;;4.95;3.13;;;;;;;;;;5035432;28;20021;-80
2022/05/31 08:29:16;;;;;;;9.93;3.30;;;;;;;;;;5036593;28;20022;-81
2022/05/31 08:31:42;;;;;;;6.10;2.95;;;;;;;;;;5036768;28;20061;-81
2022/05/31 08:34:08;;;;;;;5.40;2.83;;;;;;;;;;5035255;28;20052;-82
2022/05/31 08:36:35;;;;;;;6.30;2.67;;;;;;;;;;5036947;28;20099;-81
2022/05/31 08:39:01;;;;;;;6.55;3.45;;;;;;;;;;5036802;28;20053;-82
2022/05/31 08:41:33;;;;;;;5.20;2.33;;;;;;;;;;5034923;28;20083;-81
2022/05/31 08:44:01;;;;;;;14.75;3.92;;;;;;;;;;5035887;28;20025;-81
2022/05/31 08:46:27;;;;;;;7.93;2.65;;;;;;;;;;5040834;28;20014;-80
2022/05/31 08:49:01;;;;;;;5.07;2.50;;;;;;;;;;5038678;28;20498;-82
2022/05/31 08:51:54;;;;;;;5.28;2.22;;;;;;;;;;5039087;28;20072;-80
2022/05/31 08:57:29;;;;;;;6.38;3.42;;;;;;;;;;5041438;28;20390;-81
2022/05/31 08:59:59;;;;;;;6.25;2.78;;;;;;;;;;5042469;28;20264;-82
2022/05/31 09:02:29;;;;;;;7.00;3.53;;;;;;;;;;5040448;28;20051;-83
2022/05/31 09:05:03;;;;;;;6.18;3.50;;;;;;;;;;5039526;28;20021;-83
2022/05/31 09:07:49;;;;;;;7.72;4.03;;;;;;;;;;5039318;28;20383;-83
2022/05/31 09:10:15;;;;;;;9.00;3.90;;;;;;;;;;5022605;28;20021;-82
2022/05/31 09:12:48;;;;;;;5.53;2.60;;;;;;;;;;5037822;28;20043;-83
2022/05/31 09:15:34;;;;;;;5.25;2.45;;;;;;;;;;5041413;28;20017;-81
2022/05/31 09:18:10;;;;;;;4.65;2.40;;;;;;;;;;5043249;28;20025;-83
2022/05/31 09:21:04;;;;;;;6.18;2.75;;;;;;;;;;5042728;28;20052;-83
2022/05/31 09:23:34;;;;;;;5.40;3.08;;;;;;;;;;5035898;28;20040;-82
2022/05/31 09:26:09;;;;;;;5.40;3.38;;;;;;;;;;5043711;28;20132;-83
2022/05/31 09:28:37;;;;;;;6.57;3.15;;;;;;;;;;5042866;28;20009;-83
2022/05/31 09:31:13;;;;;;;5.03;2.70;;;;;;;;;;5042012;28;20097;-84
2022/05/31 09:33:43;;;;;;;7.30;2.90;;;;;;;;;;5042350;28;20111;-83
2022/05/31 09:36:32;;;;;;;4.10;2.13;;;;;;;;;;5044071;28;20723;-84
2022/05/31 09:39:14;;;;;;;4.13;2.30;;;;;;;;;;5040479;28;20033;-83
2022/05/31 09:41:58;;;;;;;5.47;2.35;;;;;;;;;;5039595;28;20040;-81
2022/05/31 09:44:26;;;;;;;10.27;6.35;;;;;;;;;;5035124;28;20513;-81
2022/05/31 09:47:05;;;;;;;4.57;1.98;;;;;;;;;;5039095;28;20025;-80
2022/05/31 09:49:42;;;;;;;4.13;1.92;;;;;;;;;;5036461;28;20029;-81
2022/05/31 09:52:10;;;;;;;5.25;2.00;;;;;;;;;;5037424;28;20029;-80
2022/05/31 09:57:40;;;;;;;5.38;1.90;;;;;;;;;;5037765;28;20028;-81
2022/05/31 10:00:20;;;;;;;4.85;2.10;;;;;;;;;;5038270;28;20116;-80
2022/05/31 10:02:57;;;;;;;5.70;2.05;;;;;;;;;;5037637;28;20451;-80
2022/05/31 10:05:23;;;;;;;12.05;2.63;;;;;;;;;;5025431;28;20029;-82
2022/05/31 10:07:49;;;;;;;4.75;2.05;;;;;;;;;;5034369;28;20118;-82
2022/05/31 10:10:17;;;;;;;3.97;1.85;;;;;;;;;;5019421;28;20018;-83
2022/05/31 10:12:51;;;;;;;4.70;1.98;;;;;;;;;;5035168;28;20038;-81
2022/05/31 10:15:34;;;;;;;5.82;2.30;;;;;;;;;;5036229;28;20025;-81
2022/05/31 10:18:05;;;;;;;4.05;2.10;;;;;;;;;;5036766;28;20033;-82
2022/05/31 10:20:31;;;;;;;3.92;2.22;;;;;;;;;;5038679;28;20025;-82
2022/05/31 10:23:02;;;;;;;4.15;2.30;;;;;;;;;;5036896;28;20029;-82
2022/05/31 10:25:28;;;;;;;4.85;2.10;;;;;;;;;;5034119;28;20034;-81
2022/05/31 10:28:17;;;;;;;5.75;2.63;;;;;;;;;;5037053;28;20392;-83
2022/05/31 10:30:44;;;;;;;5.22;2.47;;;;;;;;;;5036629;28;20037;-84
2022/05/31 10:33:16;;;;;;;5.50;2.28;;;;;;;;;;5035118;28;20029;-83
2022/05/31 10:35:43;;;;;;;4.10;2.10;;;;;;;;;;5037475;28;20323;-81
2022/05/31 10:38:10;;;;;;;4.70;2.20;;;;;;;;;;5036076;28;20025;-82
2022/05/31 10:40:55;;;;;;;3.47;1.95;;;;;;;;;;5034377;28;20056;-81
2022/05/31 10:43:25;;;;;;;3.83;1.90;;;;;;;;;;5016509;28;20048;-83
2022/05/31 10:45:51;;;;;;;5.65;2.20;;;;;;;;;;5025082;28;20484;-83
2022/05/31 10:48:17;;;;;;;4.35;1.70;;;;;;;;;;5033460;28;20064;-82
2022/05/31 10:50:53;;;;;;;5.10;2.20;;;;;;;;;;5031773;28;20447;-82
2022/05/31 10:53:29;;;;;;;6.15;2.20;;;;;;;;;;5031643;28;20021;-83
2022/05/31 10:56:16;;;;;;;4.18;2.05;;;;;;;;;;5032907;28;20488;-82
2022/05/31 10:58:54;;;;;;;3.90;1.90;;;;;;;;;;5019376;28;20504;-82
2022/05/31 11:01:30;;;;;;;3.45;1.70;;;;;;;;;;5030345;28;20026;-84
2022/05/31 11:03:56;;;;;;;4.72;2.28;;;;;;;;;;5037745;28;20026;-83
2022/05/31 11:06:25;;;;;;;4.88;2.20;;;;;;;;;;5039496;28;20036;-86
2022/05/31 11:11:55;;;;;;;6.75;2.55;;;;;;;;;;5036701;28;20376;-83
2022/05/31 11:14:22;;;;;;;4.10;2.30;;;;;;;;;;5034314;28;20123;-83
2022/05/31 11:16:54;;;;;;;5.78;2.33;;;;;;;;;;5037374;28;20021;-81
2022/05/31 11:19:29;;;;;;;5.35;2.75;;;;;;;;;;5037482;28;20418;-83
2022/05/31 11:22:14;;;;;;;3.78;2.10;;;;;;;;;;5034925;28;20675;-83
2022/05/31 11:24:40;;;;;;;5.38;2.10;;;;;;;;;;5033961;28;20034;-82
2022/05/31 11:27:09;;;;;;;4.00;2.00;;;;;;;;;;5032177;28;20051;-84
2022/05/31 11:29:35;;;;;;;4.25;2.15;;;;;;;;;;5032787;28;20060;-84
2022/05/31 11:32:10;;;;;;;3.60;2.00;;;;;;;;;;5034669;28;20030;-84
2022/05/31 11:35:03;;;;;;;6.18;2.17;;;;;;;;;;5035516;28;20033;-82
2022/05/31 11:37:30;;;;;;;3.58;1.95;;;;;;;;;;5033053;28;20045;-82
2022/05/31 11:40:04;;;;;;;3.60;2.00;;;;;;;;;;5035562;28;20083;-81
2022/05/31 11:42:42;;;;;;;3.83;2.03;;;;;;;;;;5036600;28;20446;-83
2022/05/31 11:45:08;;;;;;;5.32;2.13;;;;;;;;;;5039182;28;20026;-83
2022/05/31 11:47:34;;;;;;;4.95;2.03;;;;;;;;;;5040740;28;20031;-82
2022/05/31 11:50:18;;;;;;;5.00;2.30;;;;;;;;;;5040721;28;20036;-79
2022/05/31 11:52:44;;;;;;;4.88;2.22;;;;;;;;;;5038492;28;20128;-82
2022/05/31 11:55:25;;;;;;;5.50;2.20;;;;;;;;;;5037310;28;20060;-83
2022/05/31 11:58:15;;;;;;;4.82;2.15;;;;;;;;;;5037518;28;20609;-83
2022/05/31 12:00:50;;;;;;;5.53;1.90;;;;;;;;;;5043382;28;20021;-84
2022/05/31 12:03:16;;;;;;;6.38;2.40;;;;;;;;;;5043014;28;20332;-81
2022/05/31 12:05:44;;;;;;;5.15;2.30;;;;;;;;;;5042935;28;20060;-83
2022/05/31 12:08:13;;;;;;;8.55;2.40;;;;;;;;;;5040560;28;20029;-83
2022/05/31 12:10:42;;;;;;;4.55;2.20;;;;;;;;;;5042864;28;20025;-82
2022/05/31 12:13:10;;;;;;;4.35;2.00;;;;;;;;;;5029526;28;20021;-84
2022/05/31 12:15:37;;;;;;;4.65;2.38;;;;;;;;;;5037743;28;20487;-83
2022/05/31 12:18:03;;;;;;;4.50;2.10;;;;;;;;;;5022523;28;20034;-84
2022/05/31 12:20:38;;;;;;;5.50;2.15;;;;;;;;;;5038282;28;20372;-84
2022/05/31 12:23:04;;;;;;;6.82;2.53;;;;;;;;;;5040415;28;20505;-83
2022/05/31 12:25:33;;;;;;;5.43;2.20;;;;;;;;;;5040360;28;20045;-83
2022/05/31 12:28:12;;;;;;;4.75;2.15;;;;;;;;;;5041857;28;20025;-82
2022/05/31 12:31:04;;;;;;;4.07;2.08;;;;;;;;;;5041487;28;20527;-81
2022/05/31 12:33:46;;;;;;;4.82;1.73;;;;;;;;;;5039741;28;20064;-83
2022/05/31 12:36:13;;;;;;;4.75;2.15;;;;;;;;;;5057256;28;20369;-83
2022/05/31 12:38:56;;;;;;;5.05;2.20;;;;;;;;;;5038233;28;20029;-83
2022/05/31 12:41:37;;;;;;;4.47;2.00;;;;;;;;;;5037564;28;20083;-84
2022/05/31 12:44:08;;;;;;;3.92;2.10;;;;;;;;;;5036501;28;20025;-83
2022/05/31 12:46:34;;;;;;;4.20;1.88;;;;;;;;;;5040417;28;20091;-80
2022/05/31 12:49:02;;;;;;;4.38;2.40;;;;;;;;;;5039270;28;20025;-82
2022/05/31 12:51:29;;;;;;;3.83;2.00;;;;;;;;;;5039262;28;20029;-81
2022/05/31 12:53:57;;;;;;;4.03;2.20;;;;;;;;;;5040269;28;20041;-81
2022/05/31 12:56:34;;;;;;;4.45;2.10;;;;;;;;;;5041010;28;20029;-81
2022/05/31 12:59:00;;;;;;;5.25;1.80;;;;;;;;;;5036417;28;20033;-81
2022/05/31 13:01:26;;;;;;;4.38;2.10;;;;;;;;;;5037121;28;20026;-83
2022/05/31 13:04:16;;;;;;;6.75;1.90;;;;;;;;;;5036088;28;20477;-83
2022/05/31 13:06:41;;;;;;;4.45;1.85;;;;;;;;;;5030966;28;20124;-83
2022/05/31 13:09:31;;;;;;;4.07;1.70;;;;;;;;;;5039473;28;20103;-79
2022/05/31 13:20:49;;;;;;;3.10;1.83;;;;;;;;;;5037815;28;20087;-82
2022/05/31 13:23:20;;;;;;;4.72;1.60;;;;;;;;;;5039972;28;20104;-82
2022/05/31 13:25:57;;;;;;;4.65;1.80;;;;;;;;;;5039910;28;20037;-81
2022/05/31 13:28:32;;;;;;;3.35;1.70;;;;;;;;;;5036495;28;20018;-81
2022/05/31 13:31:13;;;;;;;3.85;1.63;;;;;;;;;;5039473;28;20032;-81
2022/05/31 13:33:39;;;;;;;5.25;1.70;;;;;;;;;;5041461;28;20517;-83
2022/05/31 13:36:08;;;;;;;3.13;1.70;;;;;;;;;;5041444;28;20442;-81
2022/05/31 13:38:35;;;;;;;5.00;2.08;;;;;;;;;;5041801;28;20029;-83
2022/05/31 13:41:03;;;;;;;5.53;2.25;;;;;;;;;;5037923;28;20038;-83
2022/05/31 13:43:32;;;;;;;3.60;1.77;;;;;;;;;;5034772;28;20026;-84
2022/05/31 13:46:03;;;;;;;4.53;1.70;;;;;;;;;;5038850;28;20020;-82
2022/05/31 13:48:34;;;;;;;3.17;1.60;;;;;;;;;;5040537;28;20017;-81
2022/05/31 13:51:02;;;;;;;3.45;1.73;;;;;;;;;;5039916;28;20108;-82
2022/05/31 13:53:34;;;;;;;3.25;1.60;;;;;;;;;;5036430;28;20079;-80
2022/05/31 13:56:01;;;;;;;3.50;1.80;;;;;;;;;;5035872;28;20529;-80
2022/05/31 13:58:35;;;;;;;3.00;1.58;;;;;;;;;;5037567;28;20526;-81
2022/05/31 14:01:02;;;;;;;4.60;2.17;;;;;;;;;;5035385;28;20084;-85
2022/05/31 14:03:54;;;;;;;3.65;1.48;;;;;;;;;;5036523;28;20092;-84
2022/05/31 14:06:20;;;;;;;3.10;1.50;;;;;;;;;;5036266;28;20042;-84
2022/05/31 14:08:46;;;;;;;4.07;1.65;;;;;;;;;;5036250;28;20054;-83
2022/05/31 14:11:23;;;;;;;5.30;1.70;;;;;;;;;;5037245;28;20032;-80
2022/05/31 14:13:54;;;;;;;3.78;1.77;;;;;;;;;;5037502;28;20559;-82
2022/05/31 14:16:41;;;;;;;3.65;1.80;;;;;;;;;;5036216;28;20025;-81
2022/05/31 14:19:16;;;;;;;3.47;1.50;;;;;;;;;;5038363;28;20033;-82
2022/05/31 14:21:43;;;;;;;4.40;2.00;;;;;;;;;;5039848;28;20017;-82
2022/05/31 14:24:10;;;;;;;6.18;1.83;;;;;;;;;;5039405;28;20037;-83
2022/05/31 14:26:36;;;;;;;4.95;1.77;;;;;;;;;;5038415;28;20418;-82
2022/05/31 14:29:21;;;;;;;6.32;2.60;;;;;;;;;;5038530;28;20033;-85
2022/05/31 14:31:53;;;;;;;6.80;2.75;;;;;;;;;;5035730;28;20030;-81
2022/05/31 14:34:19;;;;;;;4.18;1.98;;;;;;;;;;5033088;28;20029;-81
2022/05/31 14:36:46;;;;;;;7.70;2.20;;;;;;;;;;5037625;28;20559;-81
2022/05/31 14:39:20;;;;;;;4.13;2.00;;;;;;;;;;5036469;28;20081;-79
2022/05/31 14:41:47;;;;;;;8.05;2.30;;;;;;;;;;5031719;28;20417;-79
2022/05/31 14:44:29;;;;;;;3.33;1.70;;;;;;;;;;5034346;28;20587;-82
2022/05/31 14:47:08;;;;;;;4.80;2.20;;;;;;;;;;5035299;28;20018;-81
2022/05/31 14:49:40;;;;;;;4.15;1.95;;;;;;;;;;5035246;28;20018;-79
2022/05/31 14:52:22;;;;;;;4.97;2.10;;;;;;;;;;5031506;28;20457;-81
2022/05/31 14:54:51;;;;;;;3.80;2.03;;;;;;;;;;5032936;28;20037;-83
2022/05/31 14:57:25;;;;;;;4.68;1.75;;;;;;;;;;5036689;28;20036;-82
2022/05/31 14:59:55;;;;;;;3.83;1.70;;;;;;;;;;5038780;28;20041;-82
2022/05/31 15:02:23;;;;;;;4.40;1.90;;;;;;;;;;5039443;28;20021;-81
2022/05/31 15:04:51;;;;;;;4.97;2.13;;;;;;;;;;5040720;28;20025;-82
2022/05/31 15:07:23;;;;;;;3.70;1.92;;;;;;;;;;5037610;28;20017;-81
2022/05/31 15:10:08;;;;;;;8.88;2.15;;;;;;;;;;5036337;28;20088;-82
2022/05/31 15:20:54;;;;;;;6.68;2.00;;;;;;;;;;5030717;28;20065;-81
2022/05/31 15:23:21;;;;;;;4.68;1.85;;;;;;;;;;5042962;28;20661;-81
2022/05/31 15:25:58;;;;;;;6.40;2.20;;;;;;;;;;5042206;28;20130;-82
2022/05/31 15:28:24;;;;;;;3.47;1.80;;;;;;;;;;5040834;28;20112;-83
2022/05/31 15:30:50;;;;;;;4.65;2.13;;;;;;;;;;5027570;28;20029;-82
2022/05/31 15:33:16;;;;;;;4.13;2.00;;;;;;;;;;5036230;28;20045;-83